Time;durP1;ratioP1;P1;durP2;ratioP2;P2;SDS_P1;SDS_P2;PMS_P1;PMS_P2;Temp;Humidity;BMP_temperature;BMP_pressure;BME280_temperature;BME280_humidity;BME280_pressure;Samples;Min_cycle;Max_cycle;Signal;HPM_P1;HPM_P2
2022/09/10 00:00:53;;;;;;;0.70;0.70;;;13.10;99.90;;;;;;5103304;28;20457;-48
2022/09/10 00:03:20;;;;;;;1.08;0.70;;;13.10;99.90;;;;;;5088860;28;20111;-51
2022/09/10 00:05:46;;;;;;;1.23;0.75;;;13.10;99.90;;;;;;5095348;28;20088;-55
2022/09/10 00:08:12;;;;;;;3.40;1.17;;;13.00;99.90;;;;;;5092453;28;20032;-47
2022/09/10 00:10:43;;;;;;;0.80;0.80;;;13.00;99.90;;;;;;5090582;28;20035;-49
2022/09/10 00:13:10;;;;;;;2.15;0.80;;;13.00;99.90;;;;;;5091438;28;20043;-51
2022/09/10 00:15:40;;;;;;;0.88;0.63;;;12.90;99.90;;;;;;5090877;28;20043;-52
2022/09/10 00:18:07;;;;;;;1.42;0.98;;;12.90;99.90;;;;;;5084895;28;20024;-53
2022/09/10 00:20:33;;;;;;;1.05;0.80;;;12.90;99.90;;;;;;5091038;28;20025;-50
2022/09/10 00:22:59;;;;;;;3.78;0.77;;;12.80;99.90;;;;;;5097564;28;20509;-51
2022/09/10 00:25:28;;;;;;;4.80;1.25;;;12.80;99.90;;;;;;5097837;28;20023;-50
2022/09/10 00:27:54;;;;;;;1.65;1.30;;;12.80;99.90;;;;;;5097472;28;20027;-51
2022/09/10 00:30:19;;;;;;;2.35;1.15;;;12.70;99.90;;;;;;5098683;28;20036;-54
2022/09/10 00:32:51;;;;;;;4.70;1.00;;;12.70;99.90;;;;;;5105515;28;20385;-55
2022/09/10 00:35:18;;;;;;;4.38;0.80;;;12.60;99.90;;;;;;5083799;28;20055;-48
2022/09/10 00:37:43;;;;;;;2.20;1.02;;;12.60;99.90;;;;;;5098133;28;20028;-54
2022/09/10 00:40:10;;;;;;;1.90;0.82;;;12.60;99.90;;;;;;5095207;28;20549;-50
2022/09/10 00:42:35;;;;;;;0.90;0.82;;;12.60;99.90;;;;;;5104141;28;20117;-50
2022/09/10 00:45:03;;;;;;;3.00;0.77;;;12.50;99.90;;;;;;5098948;28;20055;-47
2022/09/10 00:47:36;;;;;;;2.10;0.90;;;12.50;99.90;;;;;;5087959;28;20029;-60
2022/09/10 00:50:22;;;;;;;1.58;1.05;;;12.40;99.90;;;;;;5078336;28;20202;-56
2022/09/10 00:52:51;;;;;;;3.25;1.10;;;12.40;99.90;;;;;;5071418;28;20029;-56
2022/09/10 00:55:17;;;;;;;1.48;0.90;;;12.40;99.90;;;;;;5094016;28;20043;-56
2022/09/10 00:57:45;;;;;;;3.72;1.08;;;12.40;99.90;;;;;;5097758;28;20150;-56
2022/09/10 01:00:12;;;;;;;1.88;1.13;;;12.40;99.90;;;;;;5098777;28;20046;-56
2022/09/10 01:02:38;;;;;;;2.25;1.00;;;12.40;99.90;;;;;;5072013;28;20031;-55
2022/09/10 01:05:06;;;;;;;1.65;1.38;;;12.40;99.90;;;;;;5106820;28;20442;-51
2022/09/10 01:07:32;;;;;;;1.65;0.90;;;12.40;99.90;;;;;;5089007;28;20028;-53
2022/09/10 01:10:02;;;;;;;3.42;0.80;;;12.30;99.90;;;;;;5101775;28;20511;-53
2022/09/10 01:12:48;;;;;;;3.47;0.98;;;12.30;99.90;;;;;;5101636;28;20107;-54
2022/09/10 01:15:30;;;;;;;1.30;0.80;;;12.30;99.90;;;;;;5079566;28;20044;-52
2022/09/10 01:17:56;;;;;;;2.42;1.13;;;12.20;99.90;;;;;;5072872;28;20532;-54
2022/09/10 01:20:49;;;;;;;1.73;1.05;;;12.20;99.90;;;;;;5095055;28;20027;-53
2022/09/10 01:23:40;;;;;;;3.78;0.90;;;12.20;99.90;;;;;;5079475;28;20028;-54
2022/09/10 01:26:29;;;;;;;3.03;1.00;;;12.20;99.90;;;;;;5079366;28;20599;-55
2022/09/10 01:29:06;;;;;;;1.45;0.90;;;12.10;99.90;;;;;;5070319;28;20043;-54
2022/09/10 01:31:34;;;;;;;;;;;12.10;99.90;;;;;;5071027;28;20017;-53
2022/09/10 01:34:04;;;;;;;2.10;1.00;;;12.00;99.90;;;;;;5106907;28;19923;-54
2022/09/10 01:36:33;;;;;;;0.98;0.88;;;12.00;99.90;;;;;;5078190;28;20068;-52
2022/09/10 01:39:01;;;;;;;3.17;1.05;;;11.90;99.90;;;;;;5078895;28;20035;-51
2022/09/10 01:41:27;;;;;;;2.38;0.88;;;12.00;99.90;;;;;;5071395;28;20025;-51
2022/09/10 01:43:52;;;;;;;1.02;0.90;;;11.90;99.90;;;;;;5100180;28;20028;-55
2022/09/10 01:46:38;;;;;;;3.83;1.10;;;11.90;99.90;;;;;;5089364;28;20032;-52
2022/09/10 01:49:25;;;;;;;3.20;1.23;;;11.90;99.90;;;;;;5070130;28;20029;-52
2022/09/10 01:52:27;;;;;;;5.78;1.10;;;11.90;99.90;;;;;;5068586;28;20029;-52
2022/09/10 01:55:25;;;;;;;2.25;0.82;;;11.80;99.90;;;;;;5080102;28;20042;-51
2022/09/10 01:58:12;;;;;;;1.75;0.90;;;11.80;99.90;;;;;;5082192;28;20028;-54
2022/09/10 02:00:42;;;;;;;2.50;1.10;;;11.70;99.90;;;;;;5085503;28;20609;-49
2022/09/10 02:03:17;;;;;;;2.33;1.05;;;11.70;99.90;;;;;;5078587;28;20028;-55
2022/09/10 02:05:47;;;;;;;1.70;1.20;;;11.70;99.90;;;;;;5082245;28;20029;-55
2022/09/10 02:08:25;;;;;;;2.30;1.00;;;11.70;99.90;;;;;;5069731;28;20066;-55
2022/09/10 02:10:56;;;;;;;1.92;1.15;;;11.60;99.90;;;;;;5080680;28;20119;-51
2022/09/10 02:13:22;;;;;;;1.67;1.02;;;11.60;99.90;;;;;;5071141;28;20029;-50
2022/09/10 02:15:50;;;;;;;2.05;1.30;;;11.60;99.90;;;;;;5091946;28;20025;-56
2022/09/10 02:18:16;;;;;;;4.35;1.08;;;11.60;99.90;;;;;;5084970;28;20029;-56
2022/09/10 02:20:42;;;;;;;5.05;1.20;;;11.50;99.90;;;;;;5106910;28;20034;-55
2022/09/10 02:23:09;;;;;;;2.42;1.42;;;11.50;99.90;;;;;;5089986;28;20030;-56
2022/09/10 02:25:36;;;;;;;0.98;0.90;;;11.50;99.90;;;;;;5089746;28;20016;-54
2022/09/10 02:28:03;;;;;;;2.22;1.10;;;11.40;99.90;;;;;;5074439;28;20082;-55
2022/09/10 02:30:29;;;;;;;3.17;1.13;;;11.40;99.90;;;;;;5097023;28;20559;-54
2022/09/10 02:32:54;;;;;;;1.00;0.90;;;11.40;99.90;;;;;;5075472;28;20120;-54
2022/09/10 02:35:20;;;;;;;3.08;1.40;;;11.30;99.90;;;;;;5090871;28;20472;-50
2022/09/10 02:37:46;;;;;;;2.00;1.15;;;11.40;99.90;;;;;;5097886;28;20021;-54
2022/09/10 02:40:12;;;;;;;1.88;1.48;;;11.30;99.90;;;;;;5084643;28;20399;-52
2022/09/10 02:42:38;;;;;;;1.63;1.35;;;11.30;99.90;;;;;;5087971;28;20552;-52
2022/09/10 02:45:04;;;;;;;2.55;1.20;;;11.30;99.90;;;;;;5094639;28;20131;-55
2022/09/10 02:47:29;;;;;;;1.35;1.25;;;11.30;99.90;;;;;;5073129;28;20032;-56
2022/09/10 02:49:55;;;;;;;1.35;1.20;;;11.20;99.90;;;;;;5105584;28;20119;-53
2022/09/10 02:52:20;;;;;;;1.40;1.10;;;11.20;99.90;;;;;;5094212;28;20063;-53
2022/09/10 02:54:49;;;;;;;3.08;1.52;;;11.20;99.90;;;;;;5077191;28;20045;-55
2022/09/10 02:57:14;;;;;;;8.77;1.50;;;11.20;99.90;;;;;;5098508;28;20698;-53
2022/09/10 02:59:40;;;;;;;3.35;1.20;;;11.10;99.90;;;;;;5102148;28;20036;-51
2022/09/10 03:02:05;;;;;;;4.68;1.42;;;11.10;99.90;;;;;;5099291;28;20092;-51
2022/09/10 03:04:31;;;;;;;4.57;1.60;;;11.10;99.90;;;;;;5102597;28;20383;-50
2022/09/10 03:06:56;;;;;;;3.67;1.80;;;11.10;99.90;;;;;;5100651;28;20031;-56
2022/09/10 03:09:22;;;;;;;2.17;1.45;;;11.00;99.90;;;;;;5086006;28;20059;-51
2022/09/10 03:11:47;;;;;;;3.47;1.30;;;11.00;99.90;;;;;;5076924;28;20036;-55
2022/09/10 03:14:19;;;;;;;2.63;1.38;;;10.90;99.90;;;;;;5104450;28;20019;-52
2022/09/10 03:16:45;;;;;;;5.32;1.50;;;10.90;99.90;;;;;;5098720;28;20028;-54
2022/09/10 03:19:11;;;;;;;1.73;1.52;;;10.90;99.90;;;;;;5103112;28;20031;-54
2022/09/10 03:21:40;;;;;;;2.85;1.42;;;10.90;99.90;;;;;;5089348;28;20716;-52
2022/09/10 03:24:06;;;;;;;3.85;1.63;;;10.90;99.90;;;;;;5077714;28;20039;-62
2022/09/10 03:26:32;;;;;;;2.45;1.67;;;10.80;99.90;;;;;;5086262;28;20093;-63
2022/09/10 03:28:58;;;;;;;2.63;1.80;;;10.80;99.90;;;;;;5085289;28;20063;-62
2022/09/10 03:31:23;;;;;;;3.35;1.60;;;10.80;99.90;;;;;;5088176;28;20048;-63
2022/09/10 03:33:49;;;;;;;2.53;1.65;;;10.70;99.90;;;;;;5080851;28;20518;-52
2022/09/10 03:36:17;;;;;;;1.88;1.35;;;10.80;99.90;;;;;;5083041;28;20028;-49
2022/09/10 03:38:42;;;;;;;3.22;1.50;;;10.70;99.90;;;;;;5096449;28;20377;-48
2022/09/10 03:41:09;;;;;;;3.03;1.70;;;10.70;99.90;;;;;;5097874;28;20531;-51
2022/09/10 03:43:34;;;;;;;2.38;1.45;;;10.70;99.90;;;;;;5093711;28;20028;-48
2022/09/10 03:46:01;;;;;;;5.32;1.55;;;10.60;99.90;;;;;;5104220;28;20039;-48
2022/09/10 03:48:26;;;;;;;2.38;1.45;;;10.60;99.90;;;;;;5098838;28;20532;-51
2022/09/10 03:50:53;;;;;;;2.45;1.30;;;10.60;99.90;;;;;;5096786;28;20040;-52
2022/09/10 03:53:19;;;;;;;2.85;1.77;;;10.60;99.90;;;;;;5100579;28;20506;-48
2022/09/10 03:55:46;;;;;;;4.68;1.58;;;10.50;99.90;;;;;;5092513;28;20024;-48
2022/09/10 03:58:12;;;;;;;2.33;1.80;;;10.50;99.90;;;;;;5080389;28;20166;-48
2022/09/10 04:00:38;;;;;;;2.75;1.55;;;10.50;99.90;;;;;;5100767;28;20020;-50
2022/09/10 04:03:04;;;;;;;2.58;1.80;;;10.50;99.90;;;;;;5101080;28;20578;-51
2022/09/10 04:05:31;;;;;;;6.13;1.70;;;10.50;99.90;;;;;;5097267;28;20034;-48
2022/09/10 04:07:57;;;;;;;1.60;1.50;;;10.50;99.90;;;;;;5081800;28;20048;-50
2022/09/10 04:10:26;;;;;;;1.75;1.40;;;10.50;99.90;;;;;;5100166;28;20093;-48
2022/09/10 04:12:52;;;;;;;1.60;1.50;;;10.40;99.90;;;;;;5075737;28;20063;-47
2022/09/10 04:15:19;;;;;;;1.50;1.40;;;10.40;99.90;;;;;;5093416;28;20070;-51
2022/09/10 04:17:45;;;;;;;5.78;1.80;;;10.40;99.90;;;;;;5083463;28;20027;-49
2022/09/10 04:20:11;;;;;;;2.97;1.58;;;10.40;99.90;;;;;;5087302;28;20391;-52
2022/09/10 04:22:37;;;;;;;3.10;1.77;;;10.40;99.90;;;;;;5088864;28;20518;-48
2022/09/10 04:25:03;;;;;;;4.85;2.05;;;10.30;99.90;;;;;;5093966;28;20024;-48
2022/09/10 04:27:29;;;;;;;8.00;2.65;;;10.30;99.90;;;;;;5090940;28;20024;-48
2022/09/10 04:29:55;;;;;;;3.35;1.63;;;10.30;99.90;;;;;;5086307;28;20026;-49
2022/09/10 04:32:20;;;;;;;3.75;1.98;;;10.30;99.90;;;;;;5071702;28;20395;-50
2022/09/10 04:34:46;;;;;;;2.45;1.95;;;10.30;99.90;;;;;;5096193;28;20046;-49
2022/09/10 04:37:11;;;;;;;6.78;2.20;;;10.30;99.90;;;;;;5077861;28;20536;-49
2022/09/10 04:39:37;;;;;;;3.58;2.15;;;10.30;99.90;;;;;;5100085;28;20031;-49
2022/09/10 04:42:02;;;;;;;2.05;1.77;;;10.30;99.90;;;;;;5090707;28;20438;-51
2022/09/10 04:44:28;;;;;;;4.00;2.20;;;10.30;99.90;;;;;;5095683;28;20028;-51
2022/09/10 04:46:54;;;;;;;10.68;2.33;;;10.30;99.90;;;;;;5090347;28;20028;-49
2022/09/10 04:49:20;;;;;;;3.30;2.00;;;10.40;99.90;;;;;;5089185;28;20021;-47
2022/09/10 04:51:46;;;;;;;2.45;1.88;;;10.40;99.90;;;;;;5090952;28;20466;-50
2022/09/10 04:54:15;;;;;;;2.42;1.98;;;10.40;99.90;;;;;;5097091;28;20036;-49
2022/09/10 04:56:42;;;;;;;4.32;1.77;;;10.40;99.90;;;;;;5103318;28;20594;-48
2022/09/10 04:59:07;;;;;;;5.03;2.15;;;10.40;99.90;;;;;;5091743;28;20028;-48
2022/09/10 05:01:33;;;;;;;4.07;1.90;;;10.50;99.90;;;;;;5103831;28;20085;-52
2022/09/10 05:03:59;;;;;;;2.33;1.70;;;10.50;99.90;;;;;;5087771;28;20050;-52
2022/09/10 05:06:24;;;;;;;2.38;1.98;;;10.60;99.90;;;;;;5085557;28;20484;-49
2022/09/10 05:08:50;;;;;;;3.08;1.83;;;10.60;99.90;;;;;;5086178;28;20120;-50
2022/09/10 05:11:18;;;;;;;2.33;1.48;;;10.60;99.90;;;;;;5094039;28;20085;-49
2022/09/10 05:13:44;;;;;;;5.20;2.45;;;10.70;99.90;;;;;;5095652;28;20051;-49
2022/09/10 05:16:09;;;;;;;2.05;1.90;;;10.70;99.90;;;;;;5101498;28;20062;-48
2022/09/10 05:18:35;;;;;;;3.70;2.10;;;10.80;99.90;;;;;;5102259;28;20586;-47
2022/09/10 05:21:00;;;;;;;3.25;1.95;;;10.80;99.90;;;;;;5096189;28;20122;-49
2022/09/10 05:23:26;;;;;;;4.75;2.13;;;10.90;99.90;;;;;;5094671;28;20035;-48
2022/09/10 05:25:52;;;;;;;2.65;1.60;;;11.00;99.90;;;;;;5100575;28;20020;-54
2022/09/10 05:28:19;;;;;;;3.63;1.50;;;11.00;99.90;;;;;;5109706;28;20027;-51
2022/09/10 05:30:45;;;;;;;4.07;1.60;;;11.10;99.90;;;;;;5089021;28;20034;-50
2022/09/10 05:33:11;;;;;;;3.63;1.73;;;11.10;99.90;;;;;;5069475;28;20028;-50
2022/09/10 05:35:37;;;;;;;2.92;1.70;;;11.20;99.90;;;;;;5100716;28;20542;-50
2022/09/10 05:38:02;;;;;;;1.67;1.50;;;11.30;99.90;;;;;;5090028;28;20028;-50
2022/09/10 05:40:28;;;;;;;3.08;1.65;;;11.50;99.90;;;;;;5099853;28;20098;-48
2022/09/10 05:42:54;;;;;;;5.10;1.95;;;12.20;99.90;;;;;;5069493;28;20103;-49
2022/09/10 05:45:20;;;;;;;2.03;1.63;;;13.40;99.90;;;;;;5088394;28;20075;-51
2022/09/10 05:47:46;;;;;;;1.67;1.17;;;14.60;99.90;;;;;;5092182;28;20103;-51
2022/09/10 05:50:11;;;;;;;0.98;0.90;;;15.70;99.90;;;;;;5079322;28;20391;-51
2022/09/10 05:52:37;;;;;;;1.63;1.10;;;16.80;99.90;;;;;;5088052;28;20028;-50
2022/09/10 05:55:03;;;;;;;2.50;1.10;;;17.90;99.90;;;;;;5088545;28;20115;-54
2022/09/10 05:57:30;;;;;;;1.25;1.15;;;18.60;99.90;;;;;;5081877;28;20043;-50
2022/09/10 05:59:55;;;;;;;3.35;1.20;;;19.10;99.90;;;;;;5096190;28;20028;-51
2022/09/10 06:02:21;;;;;;;1.65;0.85;;;19.90;98.30;;;;;;5078560;28;20030;-50
2022/09/10 06:04:46;;;;;;;1.95;1.15;;;20.80;96.00;;;;;;5089314;28;20052;-54
2022/09/10 06:07:12;;;;;;;1.63;1.17;;;21.70;93.20;;;;;;5083068;28;20047;-49
2022/09/10 06:09:37;;;;;;;2.45;1.30;;;22.50;91.20;;;;;;5100247;28;20753;-47
2022/09/10 06:12:05;;;;;;;9.75;1.67;;;23.20;85.30;;;;;;5090869;28;20043;-47
2022/09/10 06:14:31;;;;;;;4.18;1.27;;;23.80;83.40;;;;;;5105147;28;20480;-51
2022/09/10 06:16:56;;;;;;;1.60;1.17;;;24.40;83.00;;;;;;5090289;28;20046;-50
2022/09/10 06:19:22;;;;;;;1.15;0.80;;;24.90;78.80;;;;;;5101661;28;20071;-48
2022/09/10 06:21:51;;;;;;;1.08;0.93;;;25.30;73.20;;;;;;5072114;28;20081;-51
2022/09/10 06:24:16;;;;;;;2.80;1.00;;;25.50;72.00;;;;;;5076265;28;20026;-45
2022/09/10 06:26:42;;;;;;;1.00;0.90;;;26.00;69.20;;;;;;5068670;28;20108;-48
2022/09/10 06:29:08;;;;;;;1.23;0.77;;;26.50;66.40;;;;;;5108377;28;20483;-46
2022/09/10 06:31:33;;;;;;;1.00;0.88;;;27.00;64.50;;;;;;5077914;28;20044;-46
2022/09/10 06:34:00;;;;;;;1.23;0.93;;;27.40;62.30;;;;;;5093525;28;20118;-46
2022/09/10 06:36:29;;;;;;;1.55;0.73;;;27.90;54.80;;;;;;5091141;28;20031;-48
2022/09/10 06:38:56;;;;;;;2.80;1.00;;;28.00;56.60;;;;;;5087889;28;20484;-47
2022/09/10 06:41:23;;;;;;;1.83;1.00;;;27.90;53.40;;;;;;5085043;28;20262;-47
2022/09/10 06:43:49;;;;;;;2.10;1.02;;;28.00;51.50;;;;;;5103079;28;20396;-49
2022/09/10 06:46:17;;;;;;;1.17;0.65;;;28.50;49.10;;;;;;5086671;28;20032;-46
2022/09/10 06:48:44;;;;;;;0.70;0.70;;;29.20;44.80;;;;;;5092685;28;20082;-59
2022/09/10 06:51:11;;;;;;;1.75;1.17;;;29.60;43.30;;;;;;5093223;28;20019;-59
2022/09/10 06:53:38;;;;;;;1.92;0.75;;;29.90;41.20;;;;;;5075105;28;20099;-63
2022/09/10 06:56:04;;;;;;;1.92;0.80;;;30.20;38.10;;;;;;5101157;28;20459;-63
2022/09/10 06:58:33;;;;;;;1.95;0.70;;;30.50;38.70;;;;;;5109443;28;20018;-62
2022/09/10 07:01:08;;;;;;;2.92;0.75;;;30.60;36.30;;;;;;5092336;28;20030;-63
2022/09/10 07:03:34;;;;;;;1.10;0.70;;;30.80;30.00;;;;;;5081497;28;20569;-63
2022/09/10 07:06:06;;;;;;;1.25;0.80;;;31.20;33.10;;;;;;5088346;28;20084;-63
2022/09/10 07:08:32;;;;;;;2.47;0.75;;;31.40;28.80;;;;;;5083924;28;20312;-62
2022/09/10 07:11:03;;;;;;;4.10;0.80;;;31.50;29.90;;;;;;5095943;28;20556;-62
2022/09/10 07:13:29;;;;;;;3.03;1.10;;;31.70;27.20;;;;;;5088878;28;20131;-63
2022/09/10 07:15:55;;;;;;;1.88;0.93;;;31.70;27.90;;;;;;5096121;28;20115;-63
2022/09/10 07:18:20;;;;;;;1.27;0.70;;;31.90;27.30;;;;;;5071540;28;20099;-63
2022/09/10 07:20:46;;;;;;;1.25;0.90;;;31.80;26.60;;;;;;5096004;28;20043;-63
2022/09/10 07:23:15;;;;;;;1.38;0.60;;;31.70;26.10;;;;;;5084983;28;20032;-63
2022/09/10 07:25:41;;;;;;;0.88;0.70;;;31.70;24.90;;;;;;5074955;28;20046;-63
2022/09/10 07:28:12;;;;;;;1.58;0.75;;;31.30;23.10;;;;;;5080865;28;20221;-62
2022/09/10 07:30:39;;;;;;;2.88;0.80;;;31.20;23.10;;;;;;5082455;28;20039;-63
2022/09/10 07:33:05;;;;;;;1.50;0.65;;;31.00;22.60;;;;;;5091205;28;20475;-60
2022/09/10 07:35:35;;;;;;;2.25;0.88;;;31.00;22.40;;;;;;5077046;28;20107;-59
2022/09/10 07:38:01;;;;;;;1.60;0.50;;;31.00;20.70;;;;;;5109033;28;20441;-60
2022/09/10 07:40:27;;;;;;;1.17;0.60;;;31.00;22.30;;;;;;5086878;28;20523;-59
2022/09/10 07:42:54;;;;;;;1.33;0.70;;;30.90;22.50;;;;;;5085504;28;20498;-60
2022/09/10 07:45:20;;;;;;;0.68;0.60;;;30.80;22.20;;;;;;5074448;28;20025;-59
2022/09/10 07:47:47;;;;;;;0.95;0.80;;;30.60;21.40;;;;;;5088803;28;20499;-60
2022/09/10 07:50:13;;;;;;;1.27;0.63;;;30.50;21.60;;;;;;5083082;28;20112;-60
2022/09/10 07:52:39;;;;;;;1.85;0.75;;;30.30;22.00;;;;;;5079171;28;20025;-60
2022/09/10 07:55:05;;;;;;;3.08;0.80;;;30.10;22.00;;;;;;5090183;28;20040;-59
2022/09/10 07:57:33;;;;;;;4.70;1.15;;;30.00;22.40;;;;;;5081103;28;20484;-59
2022/09/10 07:59:59;;;;;;;0.52;0.45;;;29.80;22.10;;;;;;5093271;28;20093;-60
2022/09/10 08:02:25;;;;;;;2.45;0.70;;;29.70;22.50;;;;;;5099705;28;20024;-60
2022/09/10 08:04:51;;;;;;;0.77;0.43;;;29.50;22.40;;;;;;5090677;28;20021;-60
2022/09/10 08:07:16;;;;;;;1.27;0.70;;;29.30;22.60;;;;;;5090433;28;20035;-60
2022/09/10 08:09:42;;;;;;;1.25;0.70;;;29.20;22.20;;;;;;5082743;28;20032;-60
2022/09/10 08:12:08;;;;;;;1.02;0.60;;;29.10;22.50;;;;;;5103647;28;20031;-60
2022/09/10 08:14:33;;;;;;;2.10;0.60;;;29.10;22.10;;;;;;5110027;28;20119;-60
2022/09/10 08:17:00;;;;;;;1.55;0.68;;;29.00;22.10;;;;;;5090328;28;20048;-60
2022/09/10 08:19:26;;;;;;;1.35;0.75;;;29.00;22.10;;;;;;5111226;28;20016;-60
2022/09/10 08:21:51;;;;;;;1.20;0.60;;;29.00;22.30;;;;;;5090585;28;20043;-60
2022/09/10 08:24:17;;;;;;;3.22;0.95;;;28.90;22.00;;;;;;5107885;28;20047;-60
2022/09/10 08:26:42;;;;;;;1.60;0.70;;;28.80;22.10;;;;;;5100732;28;20080;-60
2022/09/10 08:29:08;;;;;;;3.10;0.80;;;28.70;22.20;;;;;;5092175;28;20028;-59
2022/09/10 08:31:33;;;;;;;1.50;0.60;;;28.70;21.90;;;;;;5109060;28;20509;-60
2022/09/10 08:33:59;;;;;;;1.50;0.60;;;28.50;21.50;;;;;;5094886;28;20096;-60
2022/09/10 08:36:25;;;;;;;1.25;0.70;;;28.60;21.50;;;;;;5109735;28;20055;-60
2022/09/10 08:38:52;;;;;;;2.92;0.70;;;28.60;21.10;;;;;;5112005;28;20043;-60
2022/09/10 08:41:34;;;;;;;0.95;0.52;;;28.50;20.90;;;;;;5096145;28;20049;-59
2022/09/10 08:44:08;;;;;;;1.63;0.93;;;28.50;21.10;;;;;;5111664;28;20104;-60
2022/09/10 08:46:44;;;;;;;1.23;0.77;;;28.50;19.50;;;;;;5098048;28;20088;-60
2022/09/10 08:49:16;;;;;;;2.13;0.82;;;28.50;20.30;;;;;;5070747;28;20149;-59
2022/09/10 08:52:02;;;;;;;0.63;0.52;;;28.40;18.70;;;;;;5109215;28;20406;-60
2022/09/10 08:54:36;;;;;;;2.83;0.82;;;28.50;19.70;;;;;;5070955;28;20029;-60
2022/09/10 08:57:03;;;;;;;2.40;0.68;;;28.40;19.10;;;;;;5094017;28;20499;-59
2022/09/10 08:59:39;;;;;;;1.60;0.63;;;28.40;20.00;;;;;;5111421;28;20019;-60
2022/09/10 09:02:38;;;;;;;1.23;0.65;;;28.30;19.20;;;;;;5094265;28;20019;-60
2022/09/10 09:05:14;;;;;;;0.93;0.63;;;28.20;18.30;;;;;;5070542;28;20060;-60
2022/09/10 09:07:41;;;;;;;0.85;0.70;;;28.10;19.10;;;;;;5103661;28;20030;-59
2022/09/10 09:10:25;;;;;;;2.25;0.60;;;28.00;19.50;;;;;;5110895;28;20069;-59
2022/09/10 09:13:22;;;;;;;1.33;0.50;;;27.80;18.60;;;;;;5089703;28;20036;-59
2022/09/10 09:16:15;;;;;;;1.40;0.70;;;27.80;19.10;;;;;;5071078;28;20037;-60
2022/09/10 09:18:53;;;;;;;2.28;0.88;;;27.70;18.90;;;;;;5110864;28;20475;-61
2022/09/10 09:21:34;;;;;;;2.05;0.50;;;27.60;19.80;;;;;;5079822;28;20030;-60
2022/09/10 09:24:03;;;;;;;0.80;0.40;;;27.60;20.10;;;;;;5090558;28;20573;-60
2022/09/10 09:26:34;;;;;;;2.72;0.70;;;27.70;20.10;;;;;;5107929;28;20076;-60
2022/09/10 09:29:18;;;;;;;1.85;0.50;;;27.80;19.80;;;;;;5111111;28;20053;-60
2022/09/10 09:31:48;;;;;;;3.13;0.65;;;28.00;19.40;;;;;;5086042;28;20730;-60
2022/09/10 09:34:25;;;;;;;3.03;0.60;;;28.10;19.30;;;;;;5094788;28;20122;-60
2022/09/10 09:36:53;;;;;;;1.77;0.60;;;28.10;19.20;;;;;;5108968;28;20093;-59
2022/09/10 09:39:36;;;;;;;3.00;1.08;;;28.10;19.10;;;;;;5090237;28;20063;-60
2022/09/10 09:42:13;;;;;;;1.40;0.60;;;28.20;18.60;;;;;;5090183;28;20095;-60
2022/09/10 09:45:01;;;;;;;0.65;0.45;;;28.20;18.60;;;;;;5069793;28;20107;-60
2022/09/10 09:47:27;;;;;;;2.50;0.80;;;28.20;17.90;;;;;;5097120;28;20053;-60
2022/09/10 09:49:53;;;;;;;3.08;0.60;;;28.10;18.10;;;;;;5110440;28;20074;-60
2022/09/10 09:52:21;;;;;;;1.25;0.63;;;28.00;17.60;;;;;;5088485;28;20024;-60
2022/09/10 09:54:54;;;;;;;0.57;0.57;;;28.00;17.90;;;;;;5110179;28;20067;-60
2022/09/10 09:57:22;;;;;;;2.20;0.68;;;27.90;17.80;;;;;;5094699;28;20043;-60
2022/09/10 09:59:49;;;;;;;0.70;0.50;;;27.90;17.60;;;;;;5110338;28;20034;-60
2022/09/10 10:02:23;;;;;;;0.77;0.50;;;27.80;17.50;;;;;;5088225;28;20024;-60
2022/09/10 10:04:56;;;;;;;1.25;0.70;;;27.80;17.40;;;;;;5069484;28;20172;-60
2022/09/10 10:07:32;;;;;;;1.20;0.40;;;27.70;18.00;;;;;;5107970;28;20210;-60
2022/09/10 10:10:04;;;;;;;2.05;0.70;;;27.70;17.50;;;;;;5069363;28;20115;-60
2022/09/10 10:12:30;;;;;;;1.20;0.63;;;27.60;17.40;;;;;;5095721;28;20026;-60
2022/09/10 10:14:57;;;;;;;0.90;0.70;;;27.50;17.30;;;;;;5109898;28;20209;-59
2022/09/10 10:17:38;;;;;;;4.10;1.00;;;27.40;17.20;;;;;;5088083;28;20557;-60
2022/09/10 10:20:15;;;;;;;3.35;1.05;;;27.20;18.00;;;;;;5069155;28;20103;-60
2022/09/10 10:22:43;;;;;;;1.13;0.70;;;26.70;18.70;;;;;;5091611;28;20027;-60
2022/09/10 10:25:30;;;;;;;1.10;0.55;;;26.60;18.80;;;;;;5109824;28;20057;-61
2022/09/10 10:27:56;;;;;;;1.33;0.70;;;26.50;21.20;;;;;;5088405;28;20055;-59
2022/09/10 10:30:23;;;;;;;1.27;0.50;;;26.30;20.20;;;;;;5109095;28;20040;-60
2022/09/10 10:33:00;;;;;;;1.10;0.85;;;26.20;19.90;;;;;;5087675;28;20488;-60
2022/09/10 10:35:43;;;;;;;1.35;0.70;;;26.20;20.10;;;;;;5108752;28;20462;-60
2022/09/10 10:38:30;;;;;;;1.48;0.70;;;26.10;19.90;;;;;;5104954;28;20096;-60
2022/09/10 10:41:32;;;;;;;1.08;0.50;;;25.80;21.70;;;;;;5107709;28;20035;-59
2022/09/10 10:44:15;;;;;;;2.03;0.50;;;25.70;21.10;;;;;;5109540;28;20027;-59
2022/09/10 10:47:05;;;;;;;2.90;0.75;;;25.60;21.10;;;;;;5079491;28;20027;-59
2022/09/10 10:49:52;;;;;;;0.65;0.45;;;25.50;21.10;;;;;;5109190;28;20019;-59
2022/09/10 10:52:39;;;;;;;1.15;0.50;;;25.50;22.10;;;;;;5089920;28;20028;-59
2022/09/10 10:55:22;;;;;;;2.13;0.80;;;25.30;22.00;;;;;;5068994;28;20029;-59
2022/09/10 10:58:09;;;;;;;0.88;0.60;;;25.40;22.60;;;;;;5106542;28;20047;-60
2022/09/10 11:01:00;;;;;;;0.65;0.65;;;25.40;22.80;;;;;;5108984;28;20096;-60
2022/09/10 11:03:41;;;;;;;1.85;0.77;;;25.50;22.60;;;;;;5068411;28;20386;-60
2022/09/10 11:06:13;;;;;;;0.82;0.70;;;25.50;22.70;;;;;;5068632;28;20027;-59
2022/09/10 11:08:45;;;;;;;2.13;0.63;;;25.70;22.30;;;;;;5109277;28;20020;-60
2022/09/10 11:11:21;;;;;;;1.60;0.43;;;25.80;22.60;;;;;;5088143;28;20438;-59
2022/09/10 11:13:56;;;;;;;1.55;0.50;;;25.90;22.50;;;;;;5109058;28;20448;-60
2022/09/10 11:16:40;;;;;;;0.87;0.50;;;25.90;22.00;;;;;;5072427;28;20160;-59
2022/09/10 11:19:18;;;;;;;1.65;0.77;;;26.00;22.30;;;;;;5108659;28;20019;-60
2022/09/10 11:21:53;;;;;;;0.88;0.50;;;26.00;22.40;;;;;;5078008;28;20047;-60
2022/09/10 11:24:25;;;;;;;1.20;0.40;;;25.90;22.00;;;;;;5089149;28;20032;-59
2022/09/10 11:27:05;;;;;;;2.92;0.50;;;25.80;22.10;;;;;;5079976;28;20051;-59
2022/09/10 11:29:41;;;;;;;0.50;0.47;;;25.70;22.40;;;;;;5108790;28;20080;-61
2022/09/10 11:32:33;;;;;;;0.77;0.40;;;25.60;22.30;;;;;;5083513;28;20454;-56
2022/09/10 11:35:20;;;;;;;1.00;0.52;;;25.60;22.60;;;;;;5099320;28;20058;-55
2022/09/10 11:38:09;;;;;;;1.50;0.52;;;25.60;22.90;;;;;;5094438;28;20031;-50
2022/09/10 11:40:45;;;;;;;1.00;0.35;;;25.70;22.80;;;;;;5068221;28;20564;-52
2022/09/10 11:43:12;;;;;;;;;;;25.50;22.50;;;;;;5101272;28;20156;-56
2022/09/10 11:45:44;;;;;;;2.28;0.85;;;25.50;23.70;;;;;;5108511;28;20371;-54
2022/09/10 11:48:28;;;;;;;0.98;0.32;;;25.50;22.60;;;;;;5087633;28;20028;-54
2022/09/10 11:51:06;;;;;;;1.27;0.55;;;25.40;22.70;;;;;;5072282;28;20043;-55
2022/09/10 11:53:33;;;;;;;0.95;0.50;;;25.30;22.60;;;;;;5110288;28;20036;-54
2022/09/10 11:56:12;;;;;;;1.27;0.50;;;25.20;22.80;;;;;;5112593;28;20020;-56
2022/09/10 11:58:37;;;;;;;1.15;0.40;;;25.20;23.00;;;;;;5072248;28;20017;-52
2022/09/10 12:01:19;;;;;;;1.00;0.60;;;25.10;23.00;;;;;;5111065;28;20028;-51
2022/09/10 12:03:47;;;;;;;1.98;0.60;;;25.10;23.20;;;;;;5112566;28;20066;-54
2022/09/10 12:06:32;;;;;;;1.30;0.60;;;25.00;23.40;;;;;;5090249;28;20055;-53
2022/09/10 12:09:23;;;;;;;1.38;0.50;;;25.00;24.20;;;;;;5112521;28;20032;-56
2022/09/10 12:12:13;;;;;;;2.20;0.70;;;24.90;24.30;;;;;;5079792;28;20158;-50
2022/09/10 12:14:40;;;;;;;3.40;0.63;;;24.80;24.60;;;;;;5112363;27;20028;-54
2022/09/10 12:17:26;;;;;;;1.63;0.68;;;24.80;24.10;;;;;;5097410;27;20034;-51
2022/09/10 12:19:55;;;;;;;;;;;24.80;25.10;;;;;;5072176;28;20530;-52
2022/09/10 12:22:35;;;;;;;1.92;0.60;;;24.70;25.70;;;;;;5109799;28;19911;-54
2022/09/10 12:25:29;;;;;;;1.00;0.50;;;24.70;24.70;;;;;;5091750;28;20020;-54
2022/09/10 12:28:00;;;;;;;1.25;0.60;;;24.60;24.50;;;;;;5096867;28;20027;-49
2022/09/10 12:30:28;;;;;;;1.45;0.75;;;24.60;24.70;;;;;;5069862;28;20067;-55
2022/09/10 12:32:58;;;;;;;0.85;0.40;;;24.60;25.00;;;;;;5109496;28;20038;-54
2022/09/10 12:35:30;;;;;;;0.55;0.47;;;24.60;25.00;;;;;;5111865;28;20044;-52
2022/09/10 12:38:33;;;;;;;1.15;0.52;;;24.50;25.80;;;;;;5090227;28;20039;-52
2022/09/10 12:40:59;;;;;;;2.33;0.50;;;24.50;26.80;;;;;;5110812;28;20395;-52
2022/09/10 12:43:40;;;;;;;0.63;0.50;;;24.50;26.10;;;;;;5089902;28;20483;-55
2022/09/10 12:46:06;;;;;;;0.93;0.63;;;24.40;27.00;;;;;;5111022;28;20114;-56
2022/09/10 12:48:34;;;;;;;1.10;0.73;;;24.30;26.40;;;;;;5089900;28;20107;-56
2022/09/10 12:51:13;;;;;;;1.52;0.80;;;24.30;26.30;;;;;;5111574;28;20023;-54
2022/09/10 12:54:25;;;;;;;0.70;0.68;;;24.20;26.20;;;;;;5107585;28;20160;-52
2022/09/10 12:57:11;;;;;;;0.52;0.50;;;24.20;26.00;;;;;;5077082;28;20015;-53
2022/09/10 13:00:00;;;;;;;0.40;0.40;;;24.00;25.90;;;;;;5111305;28;20030;-51
2022/09/10 13:02:30;;;;;;;1.13;0.80;;;23.90;25.90;;;;;;5086186;28;20204;-54
2022/09/10 13:05:05;;;;;;;1.85;0.80;;;23.90;26.30;;;;;;5070768;28;20451;-49
2022/09/10 13:07:36;;;;;;;1.80;0.60;;;23.80;27.10;;;;;;5108973;28;20035;-48